Terminal Aerodrome Forecast
Issued by NWS Mt. Holly, NJ

Home | Current Version | Previous Version | Text Only | Print | Product List | Glossary On
Versions: 1 2 3 4 5 6 7 8 9 10 11 12 13 14
000
FTUS41 KPHI 281400 AAA
TAFTTN
TAF AMD
KTTN 281459Z 2815/2912 23005KT P6SM SCT050 OVC090
      TEMPO 2817/2820 BKN035
     FM282300 34006KT P6SM SCT025 OVC120
     FM290900 36006KT P6SM BKN200=

USA.gov is the U.S. government's official web portal to all federal, state and local government web resources and services.